sensor_id;sensor_type;location;lat;lon;timestamp;pressure;altitude;pressure_sealevel;temperature;humidity
9746;BME280;4912;50.836;12.958;2023-05-20T00:00:44;98433.69;;;16.18;65.98
9746;BME280;4912;50.836;12.958;2023-05-20T00:03:15;98431.09;;;16.15;66.11
9746;BME280;4912;50.836;12.958;2023-05-20T00:05:46;98433.88;;;16.15;66.08
9746;BME280;4912;50.836;12.958;2023-05-20T00:08:18;98430.88;;;16.18;65.75
9746;BME280;4912;50.836;12.958;2023-05-20T00:10:51;98418.53;;;16.05;66.10
9746;BME280;4912;50.836;12.958;2023-05-20T00:13:21;98420.56;;;16.04;66.15
9746;BME280;4912;50.836;12.958;2023-05-20T00:15:52;98420.09;;;16.06;66.51
9746;BME280;4912;50.836;12.958;2023-05-20T00:18:23;98434.94;;;15.97;66.70
9746;BME280;4912;50.836;12.958;2023-05-20T00:20:53;98438.50;;;15.97;66.96
9746;BME280;4912;50.836;12.958;2023-05-20T00:23:24;98427.28;;;15.92;67.25
9746;BME280;4912;50.836;12.958;2023-05-20T00:25:57;98431.59;;;15.93;67.20
9746;BME280;4912;50.836;12.958;2023-05-20T00:28:28;98430.28;;;15.88;67.55
9746;BME280;4912;50.836;12.958;2023-05-20T00:30:58;98424.97;;;15.90;67.66
9746;BME280;4912;50.836;12.958;2023-05-20T00:33:29;98422.63;;;15.83;67.51
9746;BME280;4912;50.836;12.958;2023-05-20T00:35:59;98423.56;;;15.80;67.85
9746;BME280;4912;50.836;12.958;2023-05-20T00:38:30;98418.75;;;15.81;68.24
9746;BME280;4912;50.836;12.958;2023-05-20T00:41:03;98416.25;;;15.83;68.36
9746;BME280;4912;50.836;12.958;2023-05-20T00:43:34;98413.00;;;15.84;68.12
9746;BME280;4912;50.836;12.958;2023-05-20T00:46:05;98403.84;;;15.84;67.89
9746;BME280;4912;50.836;12.958;2023-05-20T00:48:39;98410.59;;;15.77;67.93
9746;BME280;4912;50.836;12.958;2023-05-20T00:51:13;98414.38;;;15.74;68.08
9746;BME280;4912;50.836;12.958;2023-05-20T00:53:44;98412.69;;;15.62;68.13
9746;BME280;4912;50.836;12.958;2023-05-20T00:56:17;98414.69;;;15.62;68.38
9746;BME280;4912;50.836;12.958;2023-05-20T00:58:48;98410.81;;;15.53;68.58
9746;BME280;4912;50.836;12.958;2023-05-20T01:01:19;98417.16;;;15.54;68.58
9746;BME280;4912;50.836;12.958;2023-05-20T01:03:50;98424.44;;;15.51;68.91
9746;BME280;4912;50.836;12.958;2023-05-20T01:06:21;98415.69;;;15.44;69.27
9746;BME280;4912;50.836;12.958;2023-05-20T01:08:52;98421.00;;;15.42;69.16
9746;BME280;4912;50.836;12.958;2023-05-20T01:11:30;98415.84;;;15.35;69.39
9746;BME280;4912;50.836;12.958;2023-05-20T01:14:06;98416.78;;;15.32;69.65
9746;BME280;4912;50.836;12.958;2023-05-20T01:16:38;98417.31;;;15.30;69.87
9746;BME280;4912;50.836;12.958;2023-05-20T01:19:21;98413.53;;;15.33;69.95
9746;BME280;4912;50.836;12.958;2023-05-20T01:21:56;98412.06;;;15.38;69.94
9746;BME280;4912;50.836;12.958;2023-05-20T01:24:31;98407.75;;;15.37;69.97
9746;BME280;4912;50.836;12.958;2023-05-20T01:27:02;98402.19;;;15.37;69.66
9746;BME280;4912;50.836;12.958;2023-05-20T01:29:36;98403.44;;;15.36;69.57
9746;BME280;4912;50.836;12.958;2023-05-20T01:32:11;98409.19;;;15.32;69.67
9746;BME280;4912;50.836;12.958;2023-05-20T01:34:47;98413.84;;;15.21;70.16
9746;BME280;4912;50.836;12.958;2023-05-20T01:37:21;98419.16;;;15.19;70.21
9746;BME280;4912;50.836;12.958;2023-05-20T01:39:55;98406.94;;;15.16;70.64
9746;BME280;4912;50.836;12.958;2023-05-20T01:42:35;98415.00;;;15.14;70.71
9746;BME280;4912;50.836;12.958;2023-05-20T01:45:07;98415.50;;;15.12;70.69
9746;BME280;4912;50.836;12.958;2023-05-20T01:47:38;98415.50;;;15.12;70.41
9746;BME280;4912;50.836;12.958;2023-05-20T01:50:10;98412.66;;;15.07;70.89
9746;BME280;4912;50.836;12.958;2023-05-20T01:52:40;98407.25;;;15.03;71.16
9746;BME280;4912;50.836;12.958;2023-05-20T01:55:15;98415.75;;;14.94;71.45
9746;BME280;4912;50.836;12.958;2023-05-20T01:57:48;98404.78;;;14.91;71.27
9746;BME280;4912;50.836;12.958;2023-05-20T02:00:19;98400.38;;;14.84;71.62
9746;BME280;4912;50.836;12.958;2023-05-20T02:02:50;98394.81;;;14.84;71.35
9746;BME280;4912;50.836;12.958;2023-05-20T02:05:20;98393.44;;;14.80;71.26
9746;BME280;4912;50.836;12.958;2023-05-20T02:07:51;98397.69;;;14.75;71.67
9746;BME280;4912;50.836;12.958;2023-05-20T02:10:24;98390.78;;;14.70;71.83
9746;BME280;4912;50.836;12.958;2023-05-20T02:12:55;98388.19;;;14.67;71.88
9746;BME280;4912;50.836;12.958;2023-05-20T02:15:26;98391.25;;;14.69;71.64
9746;BME280;4912;50.836;12.958;2023-05-20T02:17:56;98380.50;;;14.62;72.19
9746;BME280;4912;50.836;12.958;2023-05-20T02:20:28;98384.72;;;14.57;72.65
9746;BME280;4912;50.836;12.958;2023-05-20T02:23:00;98372.94;;;14.48;72.72
9746;BME280;4912;50.836;12.958;2023-05-20T02:25:34;98377.44;;;14.45;73.00
9746;BME280;4912;50.836;12.958;2023-05-20T02:28:05;98364.50;;;14.42;73.23
9746;BME280;4912;50.836;12.958;2023-05-20T02:30:37;98366.22;;;14.40;73.14
9746;BME280;4912;50.836;12.958;2023-05-20T02:33:07;98369.47;;;14.38;73.40
9746;BME280;4912;50.836;12.958;2023-05-20T02:35:38;98367.69;;;14.26;74.05
9746;BME280;4912;50.836;12.958;2023-05-20T02:38:09;98373.09;;;14.29;73.86
9746;BME280;4912;50.836;12.958;2023-05-20T02:40:45;98364.97;;;14.02;75.25
9746;BME280;4912;50.836;12.958;2023-05-20T02:43:16;98367.13;;;14.07;75.07
9746;BME280;4912;50.836;12.958;2023-05-20T02:45:46;98378.63;;;14.00;75.70
9746;BME280;4912;50.836;12.958;2023-05-20T02:48:17;98378.44;;;14.04;75.51
9746;BME280;4912;50.836;12.958;2023-05-20T02:50:48;98377.44;;;13.92;76.10
9746;BME280;4912;50.836;12.958;2023-05-20T02:53:18;98380.69;;;13.90;76.33
9746;BME280;4912;50.836;12.958;2023-05-20T02:55:52;98385.78;;;13.77;76.44
9746;BME280;4912;50.836;12.958;2023-05-20T02:58:22;98392.47;;;13.71;77.17
9746;BME280;4912;50.836;12.958;2023-05-20T03:00:53;98389.59;;;13.80;76.84
9746;BME280;4912;50.836;12.958;2023-05-20T03:03:25;98382.13;;;13.86;76.42
9746;BME280;4912;50.836;12.958;2023-05-20T03:05:56;98384.16;;;13.85;76.41
9746;BME280;4912;50.836;12.958;2023-05-20T03:08:26;98382.03;;;13.80;76.42
9746;BME280;4912;50.836;12.958;2023-05-20T03:10:59;98373.88;;;13.77;76.71
9746;BME280;4912;50.836;12.958;2023-05-20T03:13:32;98376.06;;;13.73;76.73
9746;BME280;4912;50.836;12.958;2023-05-20T03:16:04;98374.22;;;13.70;77.09
9746;BME280;4912;50.836;12.958;2023-05-20T03:18:34;98368.97;;;13.72;76.84
9746;BME280;4912;50.836;12.958;2023-05-20T03:21:05;98369.34;;;13.65;77.54
9746;BME280;4912;50.836;12.958;2023-05-20T03:23:36;98368.09;;;13.66;77.51
9746;BME280;4912;50.836;12.958;2023-05-20T03:26:10;98361.34;;;13.58;77.94
9746;BME280;4912;50.836;12.958;2023-05-20T03:28:40;98361.66;;;13.60;77.90
9746;BME280;4912;50.836;12.958;2023-05-20T03:31:11;98363.44;;;13.48;78.30
9746;BME280;4912;50.836;12.958;2023-05-20T03:33:42;98368.22;;;13.24;80.08
9746;BME280;4912;50.836;12.958;2023-05-20T03:36:13;98374.31;;;13.13;81.03
9746;BME280;4912;50.836;12.958;2023-05-20T03:38:44;98371.69;;;13.33;80.32
9746;BME280;4912;50.836;12.958;2023-05-20T03:41:17;98370.34;;;13.52;79.91
9746;BME280;4912;50.836;12.958;2023-05-20T03:43:48;98367.78;;;13.64;79.75
9746;BME280;4912;50.836;12.958;2023-05-20T03:46:19;98374.03;;;13.73;79.46
9746;BME280;4912;50.836;12.958;2023-05-20T03:48:49;98378.56;;;13.85;79.64
9746;BME280;4912;50.836;12.958;2023-05-20T03:51:20;98384.75;;;13.89;79.28
9746;BME280;4912;50.836;12.958;2023-05-20T03:53:51;98389.34;;;13.92;78.92
9746;BME280;4912;50.836;12.958;2023-05-20T03:56:25;98399.69;;;13.92;78.59
9746;BME280;4912;50.836;12.958;2023-05-20T03:58:55;98404.13;;;13.99;78.64
9746;BME280;4912;50.836;12.958;2023-05-20T04:01:26;98398.78;;;14.10;78.40
9746;BME280;4912;50.836;12.958;2023-05-20T04:03:58;98405.59;;;14.09;77.90
9746;BME280;4912;50.836;12.958;2023-05-20T04:06:29;98397.84;;;14.13;77.64
9746;BME280;4912;50.836;12.958;2023-05-20T04:09:00;98392.06;;;14.16;77.30
9746;BME280;4912;50.836;12.958;2023-05-20T04:11:33;98388.06;;;14.17;77.05
9746;BME280;4912;50.836;12.958;2023-05-20T04:14:04;98388.72;;;14.12;77.12
9746;BME280;4912;50.836;12.958;2023-05-20T04:16:34;98386.00;;;14.03;77.59
9746;BME280;4912;50.836;12.958;2023-05-20T04:19:06;98387.44;;;13.99;77.84
9746;BME280;4912;50.836;12.958;2023-05-20T04:21:37;98388.88;;;14.09;78.03
9746;BME280;4912;50.836;12.958;2023-05-20T04:24:07;98396.56;;;14.14;77.86
9746;BME280;4912;50.836;12.958;2023-05-20T04:26:41;98399.97;;;14.18;77.74
9746;BME280;4912;50.836;12.958;2023-05-20T04:29:11;98405.22;;;14.16;77.75
9746;BME280;4912;50.836;12.958;2023-05-20T04:31:42;98397.44;;;14.20;77.54
9746;BME280;4912;50.836;12.958;2023-05-20T04:34:13;98399.75;;;14.21;77.98
9746;BME280;4912;50.836;12.958;2023-05-20T04:36:45;98396.59;;;14.28;77.71
9746;BME280;4912;50.836;12.958;2023-05-20T04:39:18;98393.81;;;14.28;77.56
9746;BME280;4912;50.836;12.958;2023-05-20T04:41:54;98403.34;;;14.37;77.51
9746;BME280;4912;50.836;12.958;2023-05-20T04:44:26;98395.88;;;14.43;77.28
9746;BME280;4912;50.836;12.958;2023-05-20T04:46:57;98399.31;;;14.38;77.10
9746;BME280;4912;50.836;12.958;2023-05-20T04:49:27;98398.16;;;14.44;77.10
9746;BME280;4912;50.836;12.958;2023-05-20T04:51:59;98400.09;;;14.38;77.07
9746;BME280;4912;50.836;12.958;2023-05-20T04:54:29;98395.00;;;14.37;77.64
9746;BME280;4912;50.836;12.958;2023-05-20T04:57:03;98389.44;;;14.37;77.52
9746;BME280;4912;50.836;12.958;2023-05-20T04:59:34;98384.25;;;14.44;77.71
9746;BME280;4912;50.836;12.958;2023-05-20T05:02:05;98385.78;;;14.45;77.80
9746;BME280;4912;50.836;12.958;2023-05-20T05:04:37;98384.25;;;14.59;77.38
9746;BME280;4912;50.836;12.958;2023-05-20T05:07:07;98381.84;;;14.81;76.71
9746;BME280;4912;50.836;12.958;2023-05-20T05:09:38;98385.47;;;14.87;76.25
9746;BME280;4912;50.836;12.958;2023-05-20T05:12:11;98380.38;;;15.00;75.91
9746;BME280;4912;50.836;12.958;2023-05-20T05:14:42;98391.84;;;15.08;75.06
9746;BME280;4912;50.836;12.958;2023-05-20T05:17:14;98383.03;;;15.09;74.95
9746;BME280;4912;50.836;12.958;2023-05-20T05:19:44;98386.56;;;15.25;74.89
9746;BME280;4912;50.836;12.958;2023-05-20T05:22:15;98380.66;;;15.37;74.61
9746;BME280;4912;50.836;12.958;2023-05-20T05:24:45;98382.03;;;15.47;73.43
9746;BME280;4912;50.836;12.958;2023-05-20T05:27:18;98372.53;;;15.54;73.53
9746;BME280;4912;50.836;12.958;2023-05-20T05:29:49;98370.91;;;15.68;72.97
9746;BME280;4912;50.836;12.958;2023-05-20T05:32:20;98373.22;;;15.69;73.04
9746;BME280;4912;50.836;12.958;2023-05-20T05:34:50;98379.56;;;15.70;72.86
9746;BME280;4912;50.836;12.958;2023-05-20T05:37:21;98381.38;;;15.73;72.60
9746;BME280;4912;50.836;12.958;2023-05-20T05:39:52;98387.94;;;15.90;72.32
9746;BME280;4912;50.836;12.958;2023-05-20T05:42:25;98387.28;;;16.01;72.06
9746;BME280;4912;50.836;12.958;2023-05-20T05:44:56;98388.38;;;16.09;71.62
9746;BME280;4912;50.836;12.958;2023-05-20T05:47:27;98391.75;;;16.13;71.89
9746;BME280;4912;50.836;12.958;2023-05-20T05:49:59;98381.81;;;16.12;71.26
9746;BME280;4912;50.836;12.958;2023-05-20T05:52:32;98387.19;;;16.15;71.46
9746;BME280;4912;50.836;12.958;2023-05-20T05:55:05;98383.47;;;16.24;71.35
9746;BME280;4912;50.836;12.958;2023-05-20T05:57:40;98377.59;;;16.22;71.39
9746;BME280;4912;50.836;12.958;2023-05-20T06:00:14;98380.16;;;16.20;70.93
9746;BME280;4912;50.836;12.958;2023-05-20T06:02:46;98366.44;;;16.22;70.93
9746;BME280;4912;50.836;12.958;2023-05-20T06:05:30;98372.03;;;16.22;70.86
9746;BME280;4912;50.836;12.958;2023-05-20T06:08:01;98376.34;;;16.23;71.26
9746;BME280;4912;50.836;12.958;2023-05-20T06:10:33;98382.38;;;16.16;70.83
9746;BME280;4912;50.836;12.958;2023-05-20T06:13:06;98378.66;;;16.24;71.29
9746;BME280;4912;50.836;12.958;2023-05-20T06:15:38;98380.81;;;16.15;70.61
9746;BME280;4912;50.836;12.958;2023-05-20T06:18:09;98369.72;;;16.20;71.17
9746;BME280;4912;50.836;12.958;2023-05-20T06:20:40;98378.16;;;16.26;70.96
9746;BME280;4912;50.836;12.958;2023-05-20T06:23:10;98365.53;;;16.30;70.70
9746;BME280;4912;50.836;12.958;2023-05-20T06:25:59;98364.03;;;16.35;70.48
9746;BME280;4912;50.836;12.958;2023-05-20T06:28:33;98360.53;;;16.40;70.07
9746;BME280;4912;50.836;12.958;2023-05-20T06:31:04;98370.00;;;16.48;70.10
9746;BME280;4912;50.836;12.958;2023-05-20T06:33:35;98369.69;;;16.66;69.46
9746;BME280;4912;50.836;12.958;2023-05-20T06:36:09;98369.72;;;16.72;69.08
9746;BME280;4912;50.836;12.958;2023-05-20T06:38:40;98366.47;;;16.79;68.93
9746;BME280;4912;50.836;12.958;2023-05-20T06:41:13;98358.88;;;16.85;68.76
9746;BME280;4912;50.836;12.958;2023-05-20T06:43:46;98364.59;;;16.96;68.68
9746;BME280;4912;50.836;12.958;2023-05-20T06:46:37;98358.84;;;17.16;68.07
9746;BME280;4912;50.836;12.958;2023-05-20T06:49:11;98364.03;;;17.35;67.17
9746;BME280;4912;50.836;12.958;2023-05-20T06:51:42;98370.69;;;17.37;66.79
9746;BME280;4912;50.836;12.958;2023-05-20T06:54:13;98364.66;;;17.55;66.54
9746;BME280;4912;50.836;12.958;2023-05-20T06:56:44;98367.78;;;17.69;66.21
9746;BME280;4912;50.836;12.958;2023-05-20T06:59:17;98357.22;;;17.95;66.01
9746;BME280;4912;50.836;12.958;2023-05-20T07:01:47;98361.09;;;18.14;65.32
9746;BME280;4912;50.836;12.958;2023-05-20T07:04:18;98349.63;;;18.23;65.31
9746;BME280;4912;50.836;12.958;2023-05-20T07:06:49;98354.22;;;18.32;63.91
9746;BME280;4912;50.836;12.958;2023-05-20T07:09:19;98352.94;;;18.33;63.33
9746;BME280;4912;50.836;12.958;2023-05-20T07:11:50;98356.06;;;18.57;63.24
9746;BME280;4912;50.836;12.958;2023-05-20T07:14:23;98339.22;;;19.13;62.02
9746;BME280;4912;50.836;12.958;2023-05-20T07:16:54;98335.84;;;19.37;61.37
9746;BME280;4912;50.836;12.958;2023-05-20T07:19:25;98338.06;;;19.60;60.25
9746;BME280;4912;50.836;12.958;2023-05-20T07:21:55;98336.03;;;19.61;58.89
9746;BME280;4912;50.836;12.958;2023-05-20T07:24:52;98334.84;;;19.92;59.52
9746;BME280;4912;50.836;12.958;2023-05-20T07:27:23;98331.13;;;20.19;58.63
9746;BME280;4912;50.836;12.958;2023-05-20T07:29:56;98333.44;;;20.15;58.09
9746;BME280;4912;50.836;12.958;2023-05-20T07:32:27;98328.09;;;20.12;56.84
9746;BME280;4912;50.836;12.958;2023-05-20T07:34:58;98315.47;;;20.35;57.60
9746;BME280;4912;50.836;12.958;2023-05-20T07:37:28;98321.28;;;20.42;57.25
9746;BME280;4912;50.836;12.958;2023-05-20T07:40:00;98323.41;;;20.66;57.78
9746;BME280;4912;50.836;12.958;2023-05-20T07:42:31;98310.56;;;20.71;56.69
9746;BME280;4912;50.836;12.958;2023-05-20T07:45:06;98315.00;;;20.91;56.53
9746;BME280;4912;50.836;12.958;2023-05-20T07:47:37;98304.00;;;21.17;55.75
9746;BME280;4912;50.836;12.958;2023-05-20T07:50:09;98307.50;;;21.23;55.13
9746;BME280;4912;50.836;12.958;2023-05-20T07:52:40;98302.31;;;21.51;56.81
9746;BME280;4912;50.836;12.958;2023-05-20T07:55:25;98305.31;;;21.78;56.08
9746;BME280;4912;50.836;12.958;2023-05-20T07:57:56;98305.34;;;21.96;55.09
9746;BME280;4912;50.836;12.958;2023-05-20T08:00:29;98296.19;;;22.09;53.76
9746;BME280;4912;50.836;12.958;2023-05-20T08:03:03;98293.53;;;22.17;52.06
9746;BME280;4912;50.836;12.958;2023-05-20T08:05:53;98282.06;;;22.28;51.47
9746;BME280;4912;50.836;12.958;2023-05-20T08:08:24;98280.84;;;22.42;51.31
9746;BME280;4912;50.836;12.958;2023-05-20T08:11:02;98285.13;;;22.62;51.42
9746;BME280;4912;50.836;12.958;2023-05-20T08:13:33;98296.34;;;22.80;51.50
9746;BME280;4912;50.836;12.958;2023-05-20T08:16:07;98295.63;;;23.06;50.66
9746;BME280;4912;50.836;12.958;2023-05-20T08:18:38;98285.31;;;22.96;49.64
9746;BME280;4912;50.836;12.958;2023-05-20T08:21:08;98278.47;;;23.04;49.01
9746;BME280;4912;50.836;12.958;2023-05-20T08:23:42;98275.44;;;23.28;48.31
9746;BME280;4912;50.836;12.958;2023-05-20T08:26:12;98268.69;;;23.58;48.20
9746;BME280;4912;50.836;12.958;2023-05-20T08:28:43;98279.31;;;23.78;47.04
9746;BME280;4912;50.836;12.958;2023-05-20T08:31:18;98270.31;;;24.14;46.30
9746;BME280;4912;50.836;12.958;2023-05-20T08:33:49;98265.53;;;24.42;46.14
9746;BME280;4912;50.836;12.958;2023-05-20T08:36:20;98259.91;;;24.92;44.76
9746;BME280;4912;50.836;12.958;2023-05-20T08:38:51;98256.56;;;25.29;43.78
9746;BME280;4912;50.836;12.958;2023-05-20T08:41:22;98261.72;;;25.74;42.46
9746;BME280;4912;50.836;12.958;2023-05-20T08:43:53;98258.41;;;26.06;41.19
9746;BME280;4912;50.836;12.958;2023-05-20T08:46:27;98267.38;;;26.40;39.62
9746;BME280;4912;50.836;12.958;2023-05-20T08:48:58;98251.88;;;26.72;39.33
9746;BME280;4912;50.836;12.958;2023-05-20T08:51:31;98252.44;;;27.08;39.43
9746;BME280;4912;50.836;12.958;2023-05-20T08:54:02;98253.19;;;27.16;37.95
9746;BME280;4912;50.836;12.958;2023-05-20T08:56:33;98252.19;;;27.29;38.02
9746;BME280;4912;50.836;12.958;2023-05-20T08:59:05;98243.25;;;27.40;37.65
9746;BME280;4912;50.836;12.958;2023-05-20T09:01:40;98242.00;;;27.81;37.92
9746;BME280;4912;50.836;12.958;2023-05-20T09:04:12;98247.69;;;28.21;37.67
9746;BME280;4912;50.836;12.958;2023-05-20T09:06:43;98242.81;;;28.39;37.41
9746;BME280;4912;50.836;12.958;2023-05-20T09:09:14;98239.63;;;28.60;37.16
9746;BME280;4912;50.836;12.958;2023-05-20T09:11:45;98229.16;;;28.87;35.84
9746;BME280;4912;50.836;12.958;2023-05-20T09:14:15;98230.44;;;29.28;36.13
9746;BME280;4912;50.836;12.958;2023-05-20T09:16:49;98235.00;;;29.48;35.21
9746;BME280;4912;50.836;12.958;2023-05-20T09:19:21;98231.06;;;29.44;34.92
9746;BME280;4912;50.836;12.958;2023-05-20T09:21:53;98231.31;;;29.55;34.38
9746;BME280;4912;50.836;12.958;2023-05-20T09:24:25;98226.22;;;29.81;34.43
9746;BME280;4912;50.836;12.958;2023-05-20T09:26:56;98225.50;;;29.63;35.14
9746;BME280;4912;50.836;12.958;2023-05-20T09:29:27;98226.03;;;29.96;35.58
9746;BME280;4912;50.836;12.958;2023-05-20T09:32:00;98215.69;;;30.00;34.42
9746;BME280;4912;50.836;12.958;2023-05-20T09:34:32;98212.19;;;30.19;33.79
9746;BME280;4912;50.836;12.958;2023-05-20T09:37:04;98209.84;;;30.35;34.37
9746;BME280;4912;50.836;12.958;2023-05-20T09:39:40;98202.13;;;30.55;33.56
9746;BME280;4912;50.836;12.958;2023-05-20T09:42:19;98195.38;;;30.60;33.16
9746;BME280;4912;50.836;12.958;2023-05-20T09:44:52;98194.03;;;30.61;33.69
9746;BME280;4912;50.836;12.958;2023-05-20T09:47:26;98187.75;;;30.72;33.87
9746;BME280;4912;50.836;12.958;2023-05-20T09:49:58;98184.91;;;30.81;34.08
9746;BME280;4912;50.836;12.958;2023-05-20T09:52:30;98186.13;;;30.88;33.89
9746;BME280;4912;50.836;12.958;2023-05-20T09:55:01;98181.31;;;31.00;33.77
9746;BME280;4912;50.836;12.958;2023-05-20T09:57:34;98181.06;;;31.15;34.19
9746;BME280;4912;50.836;12.958;2023-05-20T10:00:06;98166.00;;;31.05;33.32
9746;BME280;4912;50.836;12.958;2023-05-20T10:02:44;98174.44;;;31.13;33.64
9746;BME280;4912;50.836;12.958;2023-05-20T10:05:18;98165.28;;;31.14;33.50
9746;BME280;4912;50.836;12.958;2023-05-20T10:11:15;98156.81;;;30.97;34.19
9746;BME280;4912;50.836;12.958;2023-05-20T10:14:14;98150.69;;;31.10;33.56
9746;BME280;4912;50.836;12.958;2023-05-20T10:16:56;98155.63;;;31.29;34.49
9746;BME280;4912;50.836;12.958;2023-05-20T10:19:37;98148.38;;;31.47;34.13
9746;BME280;4912;50.836;12.958;2023-05-20T10:22:09;98157.13;;;31.59;34.03
9746;BME280;4912;50.836;12.958;2023-05-20T10:24:41;98153.66;;;31.60;32.53
9746;BME280;4912;50.836;12.958;2023-05-20T10:27:13;98158.44;;;31.58;33.50
9746;BME280;4912;50.836;12.958;2023-05-20T10:29:50;98151.38;;;31.49;32.81
9746;BME280;4912;50.836;12.958;2023-05-20T10:32:24;98145.22;;;31.62;33.70
9746;BME280;4912;50.836;12.958;2023-05-20T10:35:01;98146.69;;;31.73;33.44
9746;BME280;4912;50.836;12.958;2023-05-20T10:37:39;98143.53;;;31.79;33.12
9746;BME280;4912;50.836;12.958;2023-05-20T10:40:13;98142.22;;;32.01;33.10
9746;BME280;4912;50.836;12.958;2023-05-20T10:42:45;98138.16;;;32.14;33.25
9746;BME280;4912;50.836;12.958;2023-05-20T10:45:25;98140.28;;;32.34;32.63
9746;BME280;4912;50.836;12.958;2023-05-20T10:47:58;98139.66;;;32.05;31.70
9746;BME280;4912;50.836;12.958;2023-05-20T10:50:36;98137.63;;;32.27;31.93
9746;BME280;4912;50.836;12.958;2023-05-20T10:53:11;98126.53;;;32.42;31.73
9746;BME280;4912;50.836;12.958;2023-05-20T10:55:59;98131.81;;;32.15;30.81
9746;BME280;4912;50.836;12.958;2023-05-20T10:58:36;98131.25;;;32.38;31.54
9746;BME280;4912;50.836;12.958;2023-05-20T11:01:09;98125.09;;;32.84;31.42
9746;BME280;4912;50.836;12.958;2023-05-20T11:03:40;98116.69;;;32.98;31.02
9746;BME280;4912;50.836;12.958;2023-05-20T11:06:16;98110.66;;;33.15;30.60
9746;BME280;4912;50.836;12.958;2023-05-20T11:08:48;98118.88;;;33.42;30.92
9746;BME280;4912;50.836;12.958;2023-05-20T11:11:18;98108.13;;;33.75;30.85
9746;BME280;4912;50.836;12.958;2023-05-20T11:13:52;98107.25;;;33.72;30.94
9746;BME280;4912;50.836;12.958;2023-05-20T11:16:22;98107.41;;;33.98;30.16
9746;BME280;4912;50.836;12.958;2023-05-20T11:18:53;98112.44;;;34.21;30.51
9746;BME280;4912;50.836;12.958;2023-05-20T11:21:26;98101.38;;;34.52;29.90
9746;BME280;4912;50.836;12.958;2023-05-20T11:23:57;98106.63;;;34.79;29.75
9746;BME280;4912;50.836;12.958;2023-05-20T11:26:28;98101.94;;;34.97;28.70
9746;BME280;4912;50.836;12.958;2023-05-20T11:29:00;98097.19;;;35.27;28.53
9746;BME280;4912;50.836;12.958;2023-05-20T11:31:31;98094.66;;;35.33;28.47
9746;BME280;4912;50.836;12.958;2023-05-20T11:34:01;98098.03;;;35.55;28.26
9746;BME280;4912;50.836;12.958;2023-05-20T11:36:39;98096.00;;;35.83;28.24
9746;BME280;4912;50.836;12.958;2023-05-20T11:39:11;98091.88;;;35.99;27.02
9746;BME280;4912;50.836;12.958;2023-05-20T11:41:42;98092.69;;;35.75;25.97
9746;BME280;4912;50.836;12.958;2023-05-20T11:44:13;98082.56;;;35.48;27.31
9746;BME280;4912;50.836;12.958;2023-05-20T11:46:45;98074.75;;;35.76;27.31
9746;BME280;4912;50.836;12.958;2023-05-20T11:49:16;98072.66;;;35.90;26.71
9746;BME280;4912;50.836;12.958;2023-05-20T11:51:50;98070.88;;;36.24;26.74
9746;BME280;4912;50.836;12.958;2023-05-20T11:54:21;98067.97;;;36.65;26.73
9746;BME280;4912;50.836;12.958;2023-05-20T11:56:53;98074.50;;;36.11;25.84
9746;BME280;4912;50.836;12.958;2023-05-20T11:59:24;98079.97;;;34.78;28.20
9746;BME280;4912;50.836;12.958;2023-05-20T12:01:55;98077.78;;;35.53;27.31
9746;BME280;4912;50.836;12.958;2023-05-20T12:04:26;98068.22;;;35.62;26.53
9746;BME280;4912;50.836;12.958;2023-05-20T12:06:59;98065.50;;;35.91;26.50
9746;BME280;4912;50.836;12.958;2023-05-20T12:09:30;98079.91;;;34.18;27.81
9746;BME280;4912;50.836;12.958;2023-05-20T12:12:00;98066.22;;;32.40;30.17
9746;BME280;4912;50.836;12.958;2023-05-20T12:14:31;98067.25;;;32.87;30.47
9746;BME280;4912;50.836;12.958;2023-05-20T12:17:01;98064.19;;;33.72;29.07
9746;BME280;4912;50.836;12.958;2023-05-20T12:19:32;98053.16;;;34.50;28.45
9746;BME280;4912;50.836;12.958;2023-05-20T12:22:08;98064.75;;;35.01;27.85
9746;BME280;4912;50.836;12.958;2023-05-20T12:24:38;98052.41;;;35.24;27.49
9746;BME280;4912;50.836;12.958;2023-05-20T12:27:09;98048.34;;;35.93;27.08
9746;BME280;4912;50.836;12.958;2023-05-20T12:29:40;98041.75;;;36.04;26.35
9746;BME280;4912;50.836;12.958;2023-05-20T12:32:10;98040.69;;;36.39;26.11
9746;BME280;4912;50.836;12.958;2023-05-20T12:34:41;98040.53;;;36.64;26.46
9746;BME280;4912;50.836;12.958;2023-05-20T12:37:14;98031.03;;;36.62;25.48
9746;BME280;4912;50.836;12.958;2023-05-20T12:39:44;98039.81;;;36.36;26.22
9746;BME280;4912;50.836;12.958;2023-05-20T12:42:15;98033.69;;;35.11;27.37
9746;BME280;4912;50.836;12.958;2023-05-20T12:44:45;98023.84;;;35.67;27.40
9746;BME280;4912;50.836;12.958;2023-05-20T12:47:16;98025.88;;;35.00;28.50
9746;BME280;4912;50.836;12.958;2023-05-20T12:49:46;98031.22;;;33.97;29.53
9746;BME280;4912;50.836;12.958;2023-05-20T12:52:20;98032.19;;;33.43;30.99
9746;BME280;4912;50.836;12.958;2023-05-20T12:54:50;98032.00;;;32.42;32.23
9746;BME280;4912;50.836;12.958;2023-05-20T12:57:21;98033.84;;;32.59;32.96
9746;BME280;4912;50.836;12.958;2023-05-20T12:59:52;98030.16;;;32.26;33.31
9746;BME280;4912;50.836;12.958;2023-05-20T13:02:22;98028.59;;;32.13;33.79
9746;BME280;4912;50.836;12.958;2023-05-20T13:04:53;98023.75;;;32.16;32.43
9746;BME280;4912;50.836;12.958;2023-05-20T13:07:26;98023.25;;;30.69;34.02
9746;BME280;4912;50.836;12.958;2023-05-20T13:09:58;98021.34;;;29.69;36.46
9746;BME280;4912;50.836;12.958;2023-05-20T13:12:29;98035.97;;;29.20;38.18
9746;BME280;4912;50.836;12.958;2023-05-20T13:14:59;98020.19;;;29.19;38.56
9746;BME280;4912;50.836;12.958;2023-05-20T13:17:30;98010.84;;;31.24;35.84
9746;BME280;4912;50.836;12.958;2023-05-20T13:20:01;98008.19;;;30.97;36.09
9746;BME280;4912;50.836;12.958;2023-05-20T13:22:35;98008.38;;;29.86;37.69
9746;BME280;4912;50.836;12.958;2023-05-20T13:25:07;98005.31;;;30.30;35.14
9746;BME280;4912;50.836;12.958;2023-05-20T13:27:40;97997.94;;;32.79;32.05
9746;BME280;4912;50.836;12.958;2023-05-20T13:30:13;97996.88;;;33.52;29.96
9746;BME280;4912;50.836;12.958;2023-05-20T13:32:44;97996.75;;;33.50;28.87
9746;BME280;4912;50.836;12.958;2023-05-20T13:35:15;97992.03;;;32.66;30.81
9746;BME280;4912;50.836;12.958;2023-05-20T13:37:48;97983.06;;;32.07;32.72
9746;BME280;4912;50.836;12.958;2023-05-20T13:40:19;97981.69;;;33.73;30.95